Time;durP1;ratioP1;P1;durP2;ratioP2;P2;SDS_P1;SDS_P2;PMS_P1;PMS_P2;Temp;Humidity;BMP_temperature;BMP_pressure;BME280_temperature;BME280_humidity;BME280_pressure;Samples;Min_cycle;Max_cycle;Signal;HPM_P1;HPM_P2
2023/12/07 06:12:24;;;;;;;;;;;;;;;-8.76;100.00;101347.54;1811109;78;20453;-70
2023/12/07 06:14:52;;;;;;;;;;;;;;;-8.71;100.00;101349.86;1824747;78;20094;-76
2023/12/07 06:17:21;;;;;;;;;;;;;;;-8.65;100.00;101353.91;1828837;78;20103;-78
2023/12/07 06:49:50;;;;;;;;;;;;;;;-7.98;100.00;101350.70;1833615;78;20101;-79
2023/12/07 06:52:16;;;;;;;;;;;;;;;-7.91;100.00;101344.69;1820197;78;20116;-78
2023/12/07 06:54:43;;;;;;;;;;;;;;;-7.83;100.00;101333.21;1820250;78;20120;-75
2023/12/07 06:57:10;;;;;;;;;;;;;;;-7.74;100.00;101336.50;1815095;78;20089;-76
2023/12/07 06:59:36;;;;;;;;;;;;;;;-7.67;100.00;101330.88;1834606;78;20277;-73
2023/12/07 07:02:03;;;;;;;;;;;;;;;-7.58;100.00;101334.13;1836273;78;20089;-73
2023/12/07 07:04:30;;;;;;;;;;;;;;;-7.50;100.00;101327.70;1831856;77;20105;-73
2023/12/07 07:06:57;;;;;;;;;;;;;;;-7.42;100.00;101326.31;1825150;78;20152;-77
2023/12/07 07:09:24;;;;;;;;;;;;;;;-7.32;100.00;101332.59;1808645;79;20109;-77
2023/12/07 07:11:52;;;;;;;;;;;;;;;-7.25;100.00;101325.28;1822851;79;20148;-75
2023/12/07 07:14:19;;;;;;;;;;;;;;;-7.15;100.00;101326.45;1820808;79;20090;-74
2023/12/07 07:16:46;;;;;;;;;;;;;;;-7.08;100.00;101322.92;1818585;79;20110;-74
2023/12/07 07:19:13;;;;;;;;;;;;;;;-7.01;100.00;101325.28;1821449;79;20133;-73
2023/12/07 07:21:40;;;;;;;;;;;;;;;-6.94;100.00;101322.16;1813097;79;20477;-74
2023/12/07 07:24:11;;;;;;;;;;;;;;;-6.88;100.00;101322.78;1809216;79;20126;-74
2023/12/07 07:26:35;;;;;;;;;;;;;;;-6.83;100.00;101325.07;1799949;79;20465;-77
2023/12/07 07:29:03;;;;;;;;;;;;;;;-6.79;100.00;101322.67;1817087;78;20152;-74
2023/12/07 07:44:44;;;;;;;;;;;;;;;-6.71;100.00;101312.80;1806706;79;20109;-73
2023/12/07 07:47:11;;;;;;;;;;;;;;;-6.74;100.00;101313.97;1820967;79;20147;-74
2023/12/07 07:49:41;;;;;;;;;;;;;;;-6.72;100.00;101311.08;1815475;79;20448;-74
2023/12/07 07:52:08;;;;;;;;;;;;;;;-6.67;100.00;101311.23;1818570;79;20394;-73
2023/12/07 07:54:36;;;;;;;;;;;;;;;-6.65;100.00;101304.15;1821423;79;20125;-73
2023/12/07 07:57:04;;;;;;;;;;;;;;;-6.55;100.00;101304.06;1816310;79;20141;-78
2023/12/07 07:59:31;;;;;;;;;;;;;;;-6.45;100.00;101302.29;1820035;77;20092;-72
2023/12/07 08:09:29;;;;;;;;;;;;;;;-6.24;100.00;101306.77;1802361;79;20133;-73
2023/12/07 08:11:55;;;;;;;;;;;;;;;-6.17;100.00;101312.49;1815594;78;20160;-74
2023/12/07 08:14:22;;;;;;;;;;;;;;;-6.06;100.00;101314.97;1821541;79;20134;-74
2023/12/07 08:16:48;;;;;;;;;;;;;;;-6.00;100.00;101318.52;1820383;79;20164;-73
2023/12/07 08:19:15;;;;;;;;;;;;;;;-5.98;100.00;101322.78;1819605;79;20169;-74
2023/12/07 08:21:41;;;;;;;;;;;;;;;-5.94;100.00;101318.27;1820679;79;20205;-68
2023/12/07 08:24:08;;;;;;;;;;;;;;;-5.87;100.00;101310.00;1821238;79;20141;-72
2023/12/07 08:26:35;;;;;;;;;;;;;;;-5.80;100.00;101309.79;1821526;79;20123;-71
2023/12/07 08:29:03;;;;;;;;;;;;;;;-5.73;100.00;101305.36;1824982;78;20101;-70
2023/12/07 08:31:30;;;;;;;;;;;;;;;-5.66;100.00;101311.08;1810608;79;20396;-71
2023/12/07 08:33:56;;;;;;;;;;;;;;;-5.61;100.00;101316.28;1761468;79;20436;-70
2023/12/07 08:36:23;;;;;;;;;;;;;;;-5.58;100.00;101313.41;1810172;78;20130;-71
2023/12/07 08:38:50;;;;;;;;;;;;;;;-5.53;100.00;101317.34;1801586;79;20486;-73
2023/12/07 08:41:17;;;;;;;;;;;;;;;-5.49;100.00;101320.02;1807521;79;20158;-73
2023/12/07 08:43:44;;;;;;;;;;;;;;;-5.45;100.00;101312.09;1813454;79;20162;-72
2023/12/07 08:46:14;;;;;;;;;;;;;;;-5.38;100.00;101320.34;1817337;79;20174;-72
2023/12/07 08:48:40;;;;;;;;;;;;;;;-5.34;100.00;101320.02;1818714;77;20107;-72
2023/12/07 08:51:09;;;;;;;;;;;;;;;-5.29;100.00;101328.23;1819087;79;20169;-71
2023/12/07 08:53:35;;;;;;;;;;;;;;;-5.28;100.00;101328.68;1818360;79;20106;-76
2023/12/07 08:56:04;;;;;;;;;;;;;;;-5.29;100.00;101321.02;1808568;79;20105;-72
2023/12/07 08:58:36;;;;;;;;;;;;;;;-5.28;100.00;101319.80;1791029;79;20113;-78
2023/12/07 09:01:18;;;;;;;;;;;;;;;-5.22;100.00;101330.54;1805992;79;20158;-73
2023/12/07 09:03:47;;;;;;;;;;;;;;;-5.17;100.00;101333.62;1745882;82;20164;-74
2023/12/07 09:09:31;;;;;;;;;;;;;;;-5.07;100.00;101338.56;1633638;88;20150;-76
2023/12/07 09:11:58;;;;;;;;;;;;;;;-5.01;100.00;101340.41;1613468;87;20106;-72
2023/12/07 09:14:26;;;;;;;;;;;;;;;-5.04;100.00;101338.65;1668353;85;20131;-73
2023/12/07 09:16:54;;;;;;;;;;;;;;;-5.06;100.00;101326.31;1734112;80;20101;-72
2023/12/07 09:19:21;;;;;;;;;;;;;;;-5.06;100.00;101325.91;1793298;80;20155;-73
2023/12/07 09:21:53;;;;;;;;;;;;;;;-5.05;100.00;101319.16;1781915;80;20128;-79
2023/12/07 09:24:20;;;;;;;;;;;;;;;-4.98;100.00;101324.00;1777215;80;20096;-72
2023/12/07 09:59:06;;;;;;;;;;;;;;;-4.86;100.00;101323.92;1782462;80;20116;-75
2023/12/07 10:01:35;;;;;;;;;;;;;;;-4.85;100.00;101315.89;1777199;80;20127;-73
2023/12/07 10:04:25;;;;;;;;;;;;;;;-4.85;100.00;101318.44;1781412;80;20422;-74
2023/12/07 10:06:53;;;;;;;;;;;;;;;-4.82;100.00;101319.38;1773958;80;20201;-73
2023/12/07 10:09:22;;;;;;;;;;;;;;;-4.84;100.00;101318.48;1775034;79;20134;-73
2023/12/07 10:11:48;;;;;;;;;;;;;;;-4.84;100.00;101321.02;1766416;80;20502;-74
2023/12/07 10:14:15;;;;;;;;;;;;;;;-4.83;100.00;101325.28;1724116;80;20442;-71
2023/12/07 10:16:52;;;;;;;;;;;;;;;-4.80;100.00;101315.61;1776306;79;20169;-71
2023/12/07 10:19:21;;;;;;;;;;;;;;;-4.76;100.00;101314.84;1766330;80;20152;-71
